Time;durP1;ratioP1;P1;durP2;ratioP2;P2;SDS_P1;SDS_P2;PMS_P1;PMS_P2;Temp;Humidity;BMP_temperature;BMP_pressure;BME280_temperature;BME280_humidity;BME280_pressure;Samples;Min_cycle;Max_cycle;Signal;HPM_P1;HPM_P2
2023/10/26 00:01:27;;;;;;;67.28;32.55;;;10.30;99.90;;;;;;5056852;28;20052;-81
2023/10/26 00:03:53;;;;;;;69.53;33.40;;;10.20;99.90;;;;;;5056407;28;20048;-81
2023/10/26 00:06:18;;;;;;;60.13;29.60;;;10.20;99.90;;;;;;5056410;28;20074;-80
2023/10/26 00:08:44;;;;;;;70.25;32.33;;;10.20;99.90;;;;;;5056233;28;20134;-81
2023/10/26 00:11:10;;;;;;;67.82;32.95;;;10.20;99.90;;;;;;5056710;28;20047;-80
2023/10/26 00:13:36;;;;;;;71.50;32.00;;;10.10;99.90;;;;;;5056483;28;20047;-80
2023/10/26 00:16:02;;;;;;;69.28;33.85;;;10.10;99.90;;;;;;5056328;28;20052;-80
2023/10/26 00:18:27;;;;;;;61.60;31.65;;;10.10;99.90;;;;;;5056362;28;20036;-80
2023/10/26 00:20:57;;;;;;;67.03;32.45;;;10.10;99.90;;;;;;5056047;28;20041;-80
2023/10/26 00:23:23;;;;;;;67.97;32.97;;;10.10;99.90;;;;;;5056091;28;20091;-80
2023/10/26 00:25:48;;;;;;;62.50;31.90;;;10.00;99.90;;;;;;5074057;28;20521;-81
2023/10/26 00:28:15;;;;;;;68.05;32.22;;;10.00;99.90;;;;;;5056043;28;20052;-80
2023/10/26 00:30:40;;;;;;;65.18;31.50;;;10.00;99.90;;;;;;5056041;28;20395;-80
2023/10/26 00:33:06;;;;;;;67.13;32.25;;;10.00;99.90;;;;;;5055914;28;20036;-80
2023/10/26 00:35:31;;;;;;;63.30;32.40;;;10.00;99.90;;;;;;5055853;28;20048;-81
2023/10/26 00:37:57;;;;;;;66.10;32.03;;;10.00;99.90;;;;;;5055906;28;20044;-80
2023/10/26 00:40:23;;;;;;;68.22;31.73;;;10.00;99.90;;;;;;5055911;28;20049;-80
2023/10/26 00:42:49;;;;;;;68.75;32.45;;;10.00;99.90;;;;;;5055885;28;20076;-80
2023/10/26 00:45:15;;;;;;;65.70;31.83;;;10.00;99.90;;;;;;5055727;28;20056;-80
2023/10/26 00:47:41;;;;;;;67.28;31.50;;;9.90;99.90;;;;;;5073476;28;20091;-80
2023/10/26 00:50:07;;;;;;;63.00;31.23;;;10.00;99.90;;;;;;5055611;28;20425;-80
2023/10/26 00:52:35;;;;;;;62.38;30.45;;;10.00;99.90;;;;;;5055998;28;20471;-80
2023/10/26 00:55:03;;;;;;;69.75;31.13;;;9.90;99.90;;;;;;5055626;28;20446;-81
2023/10/26 00:57:30;;;;;;;71.13;32.55;;;9.90;99.90;;;;;;5055898;28;20407;-81
2023/10/26 00:59:57;;;;;;;69.75;31.02;;;10.00;99.90;;;;;;5073680;28;20123;-81
2023/10/26 01:02:24;;;;;;;63.17;31.75;;;10.00;99.90;;;;;;5055505;28;20464;-80
2023/10/26 01:04:50;;;;;;;66.65;31.40;;;9.90;99.90;;;;;;5073876;28;20419;-80
2023/10/26 01:07:16;;;;;;;72.60;33.65;;;10.00;99.90;;;;;;5055475;28;20099;-81
2023/10/26 01:09:42;;;;;;;73.53;33.60;;;10.00;99.90;;;;;;5055574;28;20049;-80
2023/10/26 01:12:08;;;;;;;75.95;33.50;;;9.90;99.90;;;;;;5055520;28;20045;-81
2023/10/26 01:14:34;;;;;;;67.93;32.28;;;10.00;99.90;;;;;;5055843;28;20044;-81
2023/10/26 01:17:00;;;;;;;72.18;32.30;;;10.00;99.90;;;;;;5055391;28;20398;-80
2023/10/26 01:19:39;;;;;;;65.10;30.65;;;10.00;99.90;;;;;;5055383;28;20051;-80
2023/10/26 01:22:07;;;;;;;65.95;30.02;;;10.00;99.90;;;;;;5055287;28;20403;-80
2023/10/26 01:24:33;;;;;;;67.50;30.73;;;10.00;99.90;;;;;;5073286;28;20174;-80
2023/10/26 01:26:59;;;;;;;62.67;32.15;;;10.00;99.90;;;;;;5055545;28;20051;-80
2023/10/26 01:29:24;;;;;;;62.88;30.15;;;9.90;99.90;;;;;;5055475;28;20052;-80
2023/10/26 01:31:50;;;;;;;64.47;30.38;;;9.90;99.90;;;;;;5073148;28;20475;-81
2023/10/26 01:34:16;;;;;;;59.90;29.45;;;9.90;99.90;;;;;;5055715;28;20056;-80
2023/10/26 01:36:41;;;;;;;65.47;30.13;;;9.90;99.90;;;;;;5055574;28;20041;-80
2023/10/26 01:39:07;;;;;;;63.45;29.73;;;9.90;99.90;;;;;;5055305;28;20048;-80
2023/10/26 01:41:33;;;;;;;62.50;29.10;;;9.90;99.90;;;;;;5055339;28;20053;-80
2023/10/26 01:44:00;;;;;;;68.82;31.38;;;9.90;99.90;;;;;;5073059;28;20440;-80
2023/10/26 01:46:26;;;;;;;62.17;28.63;;;9.80;99.90;;;;;;5055163;28;20136;-81
2023/10/26 01:48:51;;;;;;;58.05;28.70;;;9.80;99.90;;;;;;5073059;28;20170;-80
2023/10/26 01:51:17;;;;;;;65.88;29.45;;;9.80;99.90;;;;;;5055217;28;20076;-81
2023/10/26 01:53:43;;;;;;;70.22;29.52;;;9.90;99.90;;;;;;5073089;28;20137;-80
2023/10/26 01:56:08;;;;;;;65.55;29.30;;;9.80;99.90;;;;;;5056618;28;20049;-81
2023/10/26 01:58:34;;;;;;;61.15;28.95;;;9.90;99.90;;;;;;5058796;28;20052;-80
2023/10/26 02:01:00;;;;;;;66.97;30.08;;;9.80;99.90;;;;;;5058788;28;20128;-81
2023/10/26 02:03:26;;;;;;;71.40;30.50;;;9.80;99.90;;;;;;5059042;28;20048;-80
2023/10/26 02:05:51;;;;;;;66.78;28.73;;;9.80;99.90;;;;;;5059049;28;20071;-80
2023/10/26 02:08:17;;;;;;;62.70;28.23;;;9.80;99.90;;;;;;5058703;28;20506;-81
2023/10/26 02:10:43;;;;;;;66.43;29.80;;;9.80;99.90;;;;;;5076659;28;20040;-81
2023/10/26 02:13:09;;;;;;;66.88;29.02;;;9.80;99.90;;;;;;5076388;28;20079;-80
2023/10/26 02:15:35;;;;;;;65.10;30.33;;;9.80;99.90;;;;;;5076534;28;20041;-81
2023/10/26 02:18:01;;;;;;;62.40;29.25;;;9.80;99.90;;;;;;5058489;28;20040;-81
2023/10/26 02:20:27;;;;;;;60.72;28.60;;;9.80;99.90;;;;;;5076395;28;20036;-81
2023/10/26 02:22:57;;;;;;;63.67;29.10;;;9.80;99.90;;;;;;5058118;28;20408;-81
2023/10/26 02:25:23;;;;;;;63.25;29.85;;;9.80;99.90;;;;;;5058495;28;20134;-81
2023/10/26 02:27:51;;;;;;;74.97;30.77;;;9.90;99.90;;;;;;5058294;28;20464;-80
2023/10/26 02:30:16;;;;;;;58.05;28.30;;;9.80;99.90;;;;;;5058502;28;20044;-81
2023/10/26 02:32:42;;;;;;;64.63;30.38;;;9.90;99.90;;;;;;5058331;28;20041;-81
2023/10/26 02:35:08;;;;;;;63.22;29.13;;;9.90;99.90;;;;;;5058354;28;20041;-81
2023/10/26 02:37:38;;;;;;;65.15;30.10;;;9.80;99.90;;;;;;5058297;28;20048;-81
2023/10/26 02:40:05;;;;;;;64.20;28.73;;;9.80;99.90;;;;;;5058321;28;20067;-80
2023/10/26 02:42:31;;;;;;;61.75;28.15;;;9.90;99.90;;;;;;5058168;28;20498;-81
2023/10/26 02:44:57;;;;;;;57.30;28.38;;;9.80;99.90;;;;;;5074609;28;20550;-81
2023/10/26 02:47:23;;;;;;;58.40;28.90;;;9.80;99.90;;;;;;5058168;28;20056;-81
2023/10/26 02:49:49;;;;;;;59.15;28.45;;;9.80;99.90;;;;;;5058259;28;20045;-81
2023/10/26 02:52:15;;;;;;;62.10;29.38;;;9.70;99.90;;;;;;5057845;28;20499;-81
2023/10/26 02:54:41;;;;;;;58.17;27.63;;;9.80;99.90;;;;;;5057976;28;20045;-81
2023/10/26 02:57:06;;;;;;;53.17;26.52;;;9.80;99.90;;;;;;5057695;28;20090;-81
2023/10/26 02:59:32;;;;;;;57.05;27.00;;;9.70;99.90;;;;;;5058066;28;20101;-81
2023/10/26 03:01:57;;;;;;;56.42;27.67;;;9.70;99.90;;;;;;5075851;28;20068;-81
2023/10/26 03:04:23;;;;;;;55.42;27.88;;;9.60;99.90;;;;;;5057699;28;20042;-81
2023/10/26 03:06:49;;;;;;;59.95;28.65;;;9.60;99.90;;;;;;5057551;28;20083;-81
2023/10/26 03:09:14;;;;;;;58.35;27.70;;;9.60;99.90;;;;;;5057759;28;20060;-81
2023/10/26 03:11:40;;;;;;;56.22;28.27;;;9.60;99.90;;;;;;5075599;28;20041;-81
2023/10/26 03:14:05;;;;;;;62.50;29.45;;;9.60;99.90;;;;;;5075338;28;20037;-80
2023/10/26 03:16:34;;;;;;;47.08;26.90;;;9.50;99.90;;;;;;5075420;28;20541;-81
2023/10/26 03:19:00;;;;;;;58.25;28.15;;;9.50;99.90;;;;;;5057489;28;20044;-81
2023/10/26 03:21:27;;;;;;;54.38;26.52;;;9.50;99.90;;;;;;5057379;28;20105;-81
2023/10/26 03:23:52;;;;;;;50.05;26.05;;;9.50;99.90;;;;;;5057102;28;20510;-81
2023/10/26 03:26:19;;;;;;;48.88;24.35;;;9.40;99.90;;;;;;5057477;28;20128;-80
2023/10/26 03:28:48;;;;;;;50.28;26.17;;;9.40;99.90;;;;;;5057009;28;20048;-81
2023/10/26 03:31:13;;;;;;;49.30;25.42;;;9.40;99.90;;;;;;5057352;28;20045;-81
2023/10/26 03:33:39;;;;;;;46.95;25.77;;;9.30;99.90;;;;;;5075089;28;20372;-81
2023/10/26 03:36:16;;;;;;;47.30;25.33;;;9.30;99.90;;;;;;5074860;28;20064;-81
2023/10/26 03:38:42;;;;;;;46.88;24.48;;;9.30;99.90;;;;;;5074792;28;20491;-81
2023/10/26 03:41:09;;;;;;;48.17;25.70;;;9.30;99.90;;;;;;5056888;28;20041;-81
2023/10/26 03:43:34;;;;;;;50.10;25.35;;;9.20;99.90;;;;;;5056913;28;20044;-81
2023/10/26 03:46:00;;;;;;;43.72;22.55;;;9.20;99.90;;;;;;5057028;28;20053;-81
2023/10/26 03:48:25;;;;;;;45.20;22.45;;;9.20;99.90;;;;;;5056968;28;20052;-81
2023/10/26 03:50:51;;;;;;;43.78;22.75;;;9.20;99.90;;;;;;5056728;28;20387;-81
2023/10/26 03:53:17;;;;;;;41.55;22.50;;;9.10;99.90;;;;;;5057015;28;20123;-81
2023/10/26 03:55:42;;;;;;;36.33;19.60;;;9.10;99.90;;;;;;5056827;28;20072;-81
2023/10/26 03:58:08;;;;;;;41.58;20.85;;;9.00;99.90;;;;;;5056756;28;20040;-81
2023/10/26 04:00:34;;;;;;;40.95;20.80;;;8.90;99.90;;;;;;5056828;28;20123;-81
2023/10/26 04:03:01;;;;;;;35.20;19.23;;;8.80;99.90;;;;;;5056694;28;20052;-81
2023/10/26 04:05:28;;;;;;;36.40;19.10;;;8.70;99.90;;;;;;5056450;28;20044;-81
2023/10/26 04:07:56;;;;;;;36.55;18.92;;;8.60;99.90;;;;;;5056367;28;20135;-81
2023/10/26 04:10:22;;;;;;;35.40;19.23;;;8.60;99.90;;;;;;5056396;28;20395;-81
2023/10/26 04:12:47;;;;;;;37.83;20.38;;;8.50;99.90;;;;;;5056317;28;20053;-81
2023/10/26 04:15:13;;;;;;;36.72;19.00;;;8.50;99.90;;;;;;5073030;28;20055;-81
2023/10/26 04:17:39;;;;;;;33.40;18.58;;;8.50;99.90;;;;;;5056623;28;20049;-81
2023/10/26 04:20:07;;;;;;;38.92;21.20;;;8.60;99.90;;;;;;5073575;28;20590;-81
2023/10/26 04:22:35;;;;;;;38.30;20.08;;;8.60;99.90;;;;;;5055929;28;20052;-81
2023/10/26 04:25:01;;;;;;;45.03;22.02;;;8.60;99.90;;;;;;5056165;28;20059;-80
2023/10/26 04:27:29;;;;;;;47.22;23.73;;;8.70;99.90;;;;;;5073931;28;20063;-81
2023/10/26 04:29:55;;;;;;;53.83;25.88;;;8.70;99.90;;;;;;5056394;28;20131;-81
2023/10/26 04:32:21;;;;;;;54.13;25.25;;;8.90;99.90;;;;;;5055897;28;20132;-81
2023/10/26 04:34:46;;;;;;;45.33;22.92;;;8.90;99.90;;;;;;5056195;28;20040;-81
2023/10/26 04:37:12;;;;;;;49.95;23.13;;;8.90;99.90;;;;;;5056194;28;20097;-81
2023/10/26 04:39:41;;;;;;;45.75;22.02;;;8.90;99.90;;;;;;5055872;28;20048;-81
2023/10/26 04:42:07;;;;;;;47.05;21.80;;;8.90;99.90;;;;;;5056322;28;20041;-81
2023/10/26 04:44:32;;;;;;;48.17;21.98;;;8.90;99.90;;;;;;5055927;28;20408;-81
2023/10/26 04:46:58;;;;;;;57.97;25.23;;;8.90;99.90;;;;;;5055450;28;20086;-81
2023/10/26 04:49:24;;;;;;;54.05;24.48;;;8.90;99.90;;;;;;5055767;28;20095;-81
2023/10/26 04:51:49;;;;;;;53.30;24.25;;;9.00;99.90;;;;;;5055673;28;20044;-81
2023/10/26 04:54:15;;;;;;;51.38;24.17;;;9.00;99.90;;;;;;5073705;28;20110;-81
2023/10/26 04:56:42;;;;;;;47.58;24.38;;;9.00;99.90;;;;;;5055755;28;20480;-81
2023/10/26 04:59:07;;;;;;;59.40;25.38;;;9.00;99.90;;;;;;5055636;28;20495;-81
2023/10/26 05:01:33;;;;;;;65.60;28.58;;;9.00;99.90;;;;;;5073671;28;20048;-81
2023/10/26 05:03:59;;;;;;;66.63;27.95;;;9.10;99.90;;;;;;5055506;28;20053;-81
2023/10/26 05:06:25;;;;;;;61.88;28.80;;;9.20;99.90;;;;;;5055815;28;20052;-81
2023/10/26 05:08:50;;;;;;;59.63;27.67;;;9.30;99.90;;;;;;5073500;28;20044;-81
2023/10/26 05:11:16;;;;;;;66.65;28.33;;;9.30;99.90;;;;;;5055648;28;20041;-81
2023/10/26 05:13:42;;;;;;;57.38;26.35;;;9.30;99.90;;;;;;5073422;28;20076;-80
2023/10/26 05:16:07;;;;;;;54.78;25.25;;;9.30;99.90;;;;;;5055311;28;20044;-81
2023/10/26 05:18:33;;;;;;;57.00;25.27;;;9.30;99.90;;;;;;5055594;28;20049;-80
2023/10/26 05:20:59;;;;;;;56.15;25.42;;;9.30;99.90;;;;;;5055674;28;20049;-81
2023/10/26 05:23:26;;;;;;;57.83;26.15;;;9.40;99.90;;;;;;5055253;28;20060;-81
2023/10/26 05:25:52;;;;;;;62.60;26.60;;;9.40;99.90;;;;;;5055270;28;20092;-81
2023/10/26 05:28:20;;;;;;;54.50;25.77;;;9.40;99.90;;;;;;5055370;28;20130;-81
2023/10/26 05:30:46;;;;;;;67.47;28.42;;;9.50;99.90;;;;;;5057839;28;20047;-81
2023/10/26 05:33:12;;;;;;;67.93;28.27;;;9.50;99.90;;;;;;5059368;28;20131;-81
2023/10/26 05:35:37;;;;;;;63.92;27.58;;;9.60;99.90;;;;;;5077218;28;20040;-81
2023/10/26 05:38:03;;;;;;;66.90;27.58;;;9.60;99.90;;;;;;5059520;28;20501;-81
2023/10/26 05:40:30;;;;;;;66.35;29.33;;;9.50;99.90;;;;;;5059256;28;20072;-80
2023/10/26 05:42:55;;;;;;;65.10;27.77;;;9.60;99.90;;;;;;5059223;28;20052;-81
2023/10/26 05:45:21;;;;;;;64.82;26.92;;;9.60;99.90;;;;;;5075942;28;20181;-81
2023/10/26 05:47:53;;;;;;;61.33;27.35;;;9.70;99.90;;;;;;5058936;28;20127;-81
2023/10/26 05:50:20;;;;;;;51.90;25.67;;;9.60;99.90;;;;;;5059290;28;20097;-81
2023/10/26 05:52:46;;;;;;;57.38;26.15;;;9.60;99.90;;;;;;5059203;28;20476;-81
2023/10/26 05:55:13;;;;;;;64.65;27.95;;;9.60;99.90;;;;;;5076914;28;20036;-81
2023/10/26 05:57:38;;;;;;;61.30;27.23;;;9.60;99.90;;;;;;5075667;28;20044;-81
2023/10/26 06:00:09;;;;;;;62.03;27.20;;;9.60;99.90;;;;;;5059040;28;20048;-81
2023/10/26 06:02:36;;;;;;;69.22;28.50;;;9.60;99.90;;;;;;5058988;28;20056;-81
2023/10/26 06:05:02;;;;;;;61.72;28.17;;;9.60;99.90;;;;;;5058755;28;20049;-80
2023/10/26 06:07:27;;;;;;;58.80;27.73;;;9.60;99.90;;;;;;5076677;28;20044;-81
2023/10/26 06:09:53;;;;;;;66.03;27.55;;;9.60;99.90;;;;;;5058812;28;20448;-81
2023/10/26 06:12:19;;;;;;;59.08;27.25;;;9.70;99.90;;;;;;5076591;28;20041;-80
2023/10/26 06:14:44;;;;;;;66.13;27.75;;;9.60;99.90;;;;;;5075500;28;20047;-80
2023/10/26 06:17:11;;;;;;;61.78;28.35;;;9.70;99.90;;;;;;5058547;28;20503;-80
2023/10/26 06:19:36;;;;;;;61.20;28.23;;;9.70;99.90;;;;;;5058758;28;20078;-81
2023/10/26 06:22:04;;;;;;;57.78;28.33;;;9.70;99.90;;;;;;5058317;28;20045;-80
2023/10/26 06:24:30;;;;;;;55.75;26.60;;;9.70;99.90;;;;;;5058590;28;20053;-80
2023/10/26 06:26:55;;;;;;;63.15;27.30;;;9.60;99.90;;;;;;5075212;28;20071;-80
2023/10/26 06:29:21;;;;;;;56.90;28.02;;;9.70;99.90;;;;;;5057919;28;20056;-81
2023/10/26 06:31:46;;;;;;;52.72;25.98;;;9.70;99.90;;;;;;5058419;28;20137;-81
2023/10/26 06:34:12;;;;;;;53.85;24.70;;;9.70;99.90;;;;;;5058156;28;20511;-80
2023/10/26 06:36:37;;;;;;;55.88;25.90;;;9.70;99.90;;;;;;5058264;28;20048;-80
2023/10/26 06:39:03;;;;;;;51.28;24.77;;;9.70;99.90;;;;;;5075968;28;20078;-80
2023/10/26 06:41:29;;;;;;;51.95;25.58;;;9.70;99.90;;;;;;5057607;28;20084;-80
2023/10/26 06:43:55;;;;;;;53.95;25.92;;;9.70;99.90;;;;;;5057856;28;20478;-80
2023/10/26 06:46:21;;;;;;;53.17;25.38;;;9.70;99.90;;;;;;5057831;28;20132;-80
2023/10/26 06:48:48;;;;;;;52.83;25.77;;;9.70;99.90;;;;;;5057673;28;20120;-80
2023/10/26 06:51:14;;;;;;;51.00;25.25;;;9.70;99.90;;;;;;5058048;28;20506;-80
2023/10/26 06:53:39;;;;;;;46.35;23.60;;;9.80;99.90;;;;;;5057854;28;20224;-80
2023/10/26 06:56:12;;;;;;;49.60;24.30;;;9.80;99.90;;;;;;5075494;28;20059;-80
2023/10/26 06:58:39;;;;;;;48.00;22.25;;;9.80;99.90;;;;;;5057499;28;20044;-80
2023/10/26 07:01:09;;;;;;;46.45;23.77;;;9.80;99.90;;;;;;5057732;28;20201;-81
2023/10/26 07:03:35;;;;;;;44.47;22.35;;;9.80;99.90;;;;;;5075459;28;20040;-80
2023/10/26 07:06:04;;;;;;;47.67;23.20;;;9.80;99.90;;;;;;5057625;28;20044;-80
2023/10/26 07:08:32;;;;;;;46.15;22.05;;;9.80;99.90;;;;;;5075166;28;20055;-80
2023/10/26 07:10:59;;;;;;;43.20;22.33;;;9.70;99.90;;;;;;5057439;28;20119;-79
2023/10/26 07:13:25;;;;;;;46.70;21.92;;;9.70;99.90;;;;;;5075342;28;20105;-79
2023/10/26 07:15:51;;;;;;;44.80;20.95;;;9.70;99.90;;;;;;5057243;28;20120;-79
2023/10/26 07:18:18;;;;;;;40.05;21.30;;;9.70;99.90;;;;;;5057189;28;20127;-79
2023/10/26 07:20:44;;;;;;;46.35;22.30;;;9.70;99.90;;;;;;5057224;28;20048;-79
2023/10/26 07:23:11;;;;;;;43.05;21.95;;;9.70;99.90;;;;;;5057050;28;20060;-79
2023/10/26 07:25:38;;;;;;;41.42;21.77;;;9.70;99.90;;;;;;5075281;28;20041;-79
2023/10/26 07:28:03;;;;;;;44.15;21.80;;;9.70;99.90;;;;;;5075315;28;20033;-79
2023/10/26 07:30:41;;;;;;;39.85;21.40;;;9.80;99.90;;;;;;5075203;28;20399;-79
2023/10/26 07:33:07;;;;;;;43.97;20.83;;;9.70;99.90;;;;;;5057301;28;20047;-79
2023/10/26 07:35:40;;;;;;;40.22;21.50;;;9.70;99.90;;;;;;5056922;28;20040;-79
2023/10/26 07:38:07;;;;;;;43.42;21.02;;;9.70;99.90;;;;;;5057137;28;20052;-79
2023/10/26 07:40:33;;;;;;;40.22;21.30;;;9.80;99.90;;;;;;5057114;28;20471;-79
2023/10/26 07:42:59;;;;;;;43.55;21.70;;;9.80;99.90;;;;;;5074485;28;20044;-80
2023/10/26 07:45:25;;;;;;;39.83;21.08;;;9.80;99.90;;;;;;5056756;28;20045;-79
2023/10/26 07:47:51;;;;;;;43.53;22.73;;;9.80;99.90;;;;;;5056651;28;20080;-79
2023/10/26 07:50:19;;;;;;;38.30;20.38;;;9.80;99.90;;;;;;5056789;28;20048;-79
2023/10/26 07:52:46;;;;;;;43.33;21.38;;;9.80;99.90;;;;;;5074379;28;20048;-79
2023/10/26 07:55:11;;;;;;;41.72;20.52;;;9.90;99.90;;;;;;5073798;28;20037;-80
2023/10/26 07:57:37;;;;;;;42.55;20.52;;;9.90;99.90;;;;;;5056063;28;20394;-79
2023/10/26 08:00:04;;;;;;;44.65;20.58;;;9.90;99.90;;;;;;5074312;28;20391;-79
2023/10/26 08:02:31;;;;;;;41.10;21.15;;;9.90;99.90;;;;;;5056337;28;20396;-79
2023/10/26 08:04:57;;;;;;;39.03;20.65;;;9.90;99.90;;;;;;5056487;28;20055;-80
2023/10/26 08:07:23;;;;;;;41.60;21.63;;;10.00;99.90;;;;;;5056436;28;20037;-80
2023/10/26 08:09:48;;;;;;;44.25;21.38;;;9.90;99.90;;;;;;5074330;28;20039;-79
2023/10/26 08:12:14;;;;;;;40.00;21.13;;;9.90;99.90;;;;;;5056192;28;20391;-80
2023/10/26 08:14:40;;;;;;;42.78;21.15;;;10.00;99.90;;;;;;5056335;28;20480;-80
2023/10/26 08:17:05;;;;;;;48.00;21.83;;;10.00;99.90;;;;;;5056061;28;20044;-79
2023/10/26 08:19:31;;;;;;;47.13;22.40;;;10.00;99.90;;;;;;5056126;28;20044;-80
2023/10/26 08:21:57;;;;;;;47.72;22.17;;;10.00;99.90;;;;;;5056052;28;20059;-79
2023/10/26 08:24:27;;;;;;;39.80;20.60;;;10.10;99.90;;;;;;5074234;28;20131;-80
2023/10/26 08:26:53;;;;;;;42.70;20.88;;;10.10;99.90;;;;;;5055790;28;20040;-80
2023/10/26 08:29:19;;;;;;;42.70;21.60;;;10.10;99.90;;;;;;5074050;28;20087;-79
2023/10/26 08:31:45;;;;;;;46.42;21.40;;;10.20;99.90;;;;;;5048080;28;20068;-78
2023/10/26 08:34:11;;;;;;;43.42;20.15;;;10.20;99.90;;;;;;5036003;28;20063;-78
2023/10/26 08:36:36;;;;;;;42.90;19.67;;;10.20;99.90;;;;;;5035749;28;20051;-78
2023/10/26 08:39:02;;;;;;;43.88;20.63;;;10.20;99.90;;;;;;5035815;28;20119;-77
2023/10/26 08:41:35;;;;;;;43.97;20.95;;;10.30;99.90;;;;;;5035529;28;20041;-77
2023/10/26 08:44:03;;;;;;;40.80;21.17;;;10.30;99.90;;;;;;5035699;28;20087;-77
2023/10/26 08:46:29;;;;;;;39.22;20.05;;;10.30;99.90;;;;;;5035420;28;20049;-78
2023/10/26 08:48:56;;;;;;;44.45;20.88;;;10.40;99.90;;;;;;5035543;28;20045;-78
2023/10/26 08:51:22;;;;;;;43.95;19.48;;;10.40;99.90;;;;;;5035647;28;20072;-79
2023/10/26 08:53:50;;;;;;;41.25;20.38;;;10.50;99.90;;;;;;5035583;28;20095;-77
2023/10/26 08:56:20;;;;;;;49.40;22.50;;;10.60;99.90;;;;;;5053502;28;20058;-78
2023/10/26 08:58:47;;;;;;;46.30;22.95;;;10.60;99.90;;;;;;5035710;28;20514;-77
2023/10/26 09:01:13;;;;;;;44.22;22.65;;;10.60;99.90;;;;;;5035247;28;20057;-77
2023/10/26 09:03:38;;;;;;;47.13;23.25;;;10.70;99.90;;;;;;5035110;28;20060;-77
2023/10/26 09:06:05;;;;;;;49.25;22.88;;;10.60;99.90;;;;;;5052182;28;20052;-77
2023/10/26 09:08:31;;;;;;;47.08;22.75;;;10.70;99.90;;;;;;5035101;28;20056;-77
2023/10/26 09:10:56;;;;;;;44.50;21.30;;;10.70;99.90;;;;;;5035502;28;20041;-77
2023/10/26 09:13:27;;;;;;;44.42;23.30;;;10.70;99.90;;;;;;5052910;28;20568;-77
2023/10/26 09:15:55;;;;;;;45.83;22.02;;;10.70;99.90;;;;;;5037676;28;20049;-77
2023/10/26 09:18:21;;;;;;;45.55;24.13;;;10.70;99.90;;;;;;5060725;28;20088;-77
2023/10/26 09:21:06;;;;;;;45.88;23.42;;;10.70;99.90;;;;;;5045062;28;20494;-77
2023/10/26 09:23:39;;;;;;;50.22;23.65;;;10.60;99.90;;;;;;5062380;28;20057;-77
2023/10/26 09:26:09;;;;;;;47.38;23.00;;;10.70;99.90;;;;;;5052583;28;20489;-77
2023/10/26 09:28:51;;;;;;;46.15;22.75;;;10.70;99.90;;;;;;5042742;28;20506;-77
2023/10/26 09:31:18;;;;;;;49.67;24.08;;;10.70;99.90;;;;;;5045387;28;20099;-77
2023/10/26 09:33:47;;;;;;;45.00;23.77;;;10.80;99.90;;;;;;5043409;28;20048;-77
2023/10/26 09:36:15;;;;;;;44.03;23.02;;;10.70;99.90;;;;;;5046623;28;20036;-77
2023/10/26 09:38:42;;;;;;;43.08;23.35;;;10.60;99.90;;;;;;5055039;28;20119;-77
2023/10/26 09:41:18;;;;;;;45.20;23.48;;;10.70;99.90;;;;;;5063784;28;20029;-76
2023/10/26 09:43:44;;;;;;;43.72;24.45;;;10.60;99.90;;;;;;5035041;28;20044;-76
2023/10/26 09:46:11;;;;;;;46.05;23.60;;;10.60;99.90;;;;;;5034928;28;20052;-77
2023/10/26 09:48:37;;;;;;;39.80;22.70;;;10.70;99.90;;;;;;5034710;28;20053;-78
2023/10/26 09:51:06;;;;;;;47.03;23.55;;;10.80;99.90;;;;;;5034829;28;20120;-78
2023/10/26 09:53:38;;;;;;;44.53;23.60;;;10.70;99.90;;;;;;5052526;28;20045;-78
2023/10/26 09:56:06;;;;;;;48.60;24.95;;;10.70;99.90;;;;;;5034874;28;20512;-78
2023/10/26 09:58:40;;;;;;;46.38;24.13;;;10.70;99.90;;;;;;5034769;28;20080;-78
2023/10/26 10:01:32;;;;;;;46.10;22.23;;;10.90;99.90;;;;;;5034684;28;20049;-79
2023/10/26 10:03:58;;;;;;;44.92;24.55;;;10.80;99.90;;;;;;5034999;28;20049;-79
2023/10/26 10:06:43;;;;;;;48.70;24.02;;;10.90;99.90;;;;;;5034743;28;20049;-78
2023/10/26 10:09:10;;;;;;;48.55;25.05;;;11.00;99.90;;;;;;5034526;28;20041;-78
2023/10/26 10:11:36;;;;;;;50.78;26.25;;;10.90;99.90;;;;;;5034970;28;20559;-78
2023/10/26 10:14:02;;;;;;;44.00;24.13;;;11.00;99.90;;;;;;5052398;28;20128;-78
2023/10/26 10:16:33;;;;;;;45.20;23.85;;;11.00;99.90;;;;;;5052771;28;20120;-78
2023/10/26 10:19:25;;;;;;;44.03;23.05;;;11.00;99.90;;;;;;5056072;28;20041;-78
2023/10/26 10:21:51;;;;;;;46.50;23.02;;;11.10;99.90;;;;;;5038310;28;20059;-78
2023/10/26 10:24:39;;;;;;;43.30;23.95;;;11.20;99.90;;;;;;5055876;28;20048;-78
2023/10/26 10:27:11;;;;;;;47.17;26.05;;;11.30;99.90;;;;;;5056162;28;20049;-78
2023/10/26 10:29:38;;;;;;;45.45;25.13;;;11.30;99.90;;;;;;5038232;28;20051;-78
2023/10/26 10:32:04;;;;;;;44.25;25.33;;;11.40;99.90;;;;;;5037874;28;20049;-78
2023/10/26 10:34:42;;;;;;;45.47;24.35;;;11.40;99.90;;;;;;5038098;28;20049;-78
2023/10/26 10:37:10;;;;;;;45.00;25.30;;;11.40;99.90;;;;;;5037924;28;20044;-78
2023/10/26 10:39:36;;;;;;;45.08;24.85;;;11.50;99.90;;;;;;5037941;28;20510;-78
2023/10/26 10:42:04;;;;;;;44.42;25.23;;;11.40;99.90;;;;;;5055688;28;20041;-78
2023/10/26 10:44:34;;;;;;;43.97;24.40;;;11.40;99.90;;;;;;5037665;28;20041;-78
2023/10/26 10:47:00;;;;;;;46.20;26.65;;;11.40;99.90;;;;;;5037877;28;20120;-78
2023/10/26 10:49:25;;;;;;;45.60;26.08;;;11.50;99.90;;;;;;5037664;28;20630;-78
2023/10/26 10:51:52;;;;;;;41.75;25.25;;;11.50;99.90;;;;;;5055754;28;20041;-78
2023/10/26 10:54:22;;;;;;;43.80;24.90;;;11.50;99.90;;;;;;5037884;28;20049;-79
2023/10/26 10:56:49;;;;;;;46.15;26.05;;;11.60;99.90;;;;;;5037585;28;20052;-79
2023/10/26 10:59:25;;;;;;;43.85;24.75;;;11.60;99.90;;;;;;5037762;28;20120;-79
2023/10/26 11:02:10;;;;;;;43.30;24.70;;;11.80;99.90;;;;;;5055209;28;20083;-78
2023/10/26 11:04:57;;;;;;;39.95;24.50;;;11.90;99.90;;;;;;5037618;28;20496;-78
2023/10/26 11:07:30;;;;;;;40.08;24.40;;;11.80;99.90;;;;;;5037462;28;20041;-79
2023/10/26 11:10:00;;;;;;;42.30;24.60;;;11.70;99.90;;;;;;5037397;28;20377;-78
2023/10/26 11:12:26;;;;;;;38.58;22.67;;;11.70;99.90;;;;;;5055205;28;20041;-79
2023/10/26 11:14:53;;;;;;;38.85;22.85;;;11.60;99.90;;;;;;5037308;28;20053;-78
2023/10/26 11:17:20;;;;;;;36.00;21.80;;;11.60;99.90;;;;;;5037417;28;20502;-78
2023/10/26 11:19:47;;;;;;;38.40;22.33;;;11.50;99.90;;;;;;5037087;28;20076;-78
2023/10/26 11:22:14;;;;;;;38.90;22.58;;;11.60;99.90;;;;;;5054680;28;20057;-79
2023/10/26 11:24:40;;;;;;;40.55;23.35;;;11.60;99.90;;;;;;5036773;28;20045;-79
2023/10/26 11:27:14;;;;;;;35.70;23.60;;;11.70;99.90;;;;;;5054598;28;20377;-78
2023/10/26 11:29:40;;;;;;;40.85;23.45;;;11.70;99.90;;;;;;5036994;28;20091;-78
2023/10/26 11:32:24;;;;;;;37.88;22.77;;;11.70;99.90;;;;;;5036792;28;20048;-79
2023/10/26 11:35:07;;;;;;;37.55;21.40;;;11.60;99.90;;;;;;5037189;28;20076;-78
2023/10/26 11:37:39;;;;;;;38.25;21.77;;;11.70;99.90;;;;;;5037019;28;20540;-78
2023/10/26 11:40:06;;;;;;;38.40;21.02;;;11.80;99.90;;;;;;5037070;28;20040;-78
2023/10/26 11:42:47;;;;;;;39.40;22.55;;;11.70;99.90;;;;;;5054375;28;20500;-78
2023/10/26 11:45:18;;;;;;;38.58;21.95;;;11.70;99.90;;;;;;5054556;28;20045;-78
2023/10/26 11:47:43;;;;;;;37.30;20.92;;;11.80;99.90;;;;;;5036431;28;20135;-78
2023/10/26 11:50:30;;;;;;;35.35;20.50;;;11.90;99.90;;;;;;5036600;28;20105;-78
2023/10/26 11:52:58;;;;;;;35.53;20.83;;;12.00;99.90;;;;;;5036344;28;20307;-78
2023/10/26 11:55:24;;;;;;;30.95;19.30;;;12.00;99.90;;;;;;5036379;28;20055;-78
2023/10/26 11:57:51;;;;;;;32.17;19.23;;;12.00;99.90;;;;;;5036389;28;20041;-78
2023/10/26 12:00:18;;;;;;;33.80;20.55;;;12.10;99.90;;;;;;5054069;28;20049;-77
2023/10/26 12:02:44;;;;;;;34.42;20.10;;;12.10;99.90;;;;;;5036439;28;20091;-77
2023/10/26 12:05:18;;;;;;;33.50;20.02;;;12.00;99.90;;;;;;5036302;28;20045;-77
2023/10/26 12:07:44;;;;;;;33.70;21.13;;;11.90;99.90;;;;;;5053938;28;20035;-78
2023/10/26 12:10:10;;;;;;;34.13;20.27;;;11.90;99.90;;;;;;5036305;28;20045;-78
2023/10/26 12:12:37;;;;;;;33.65;19.65;;;12.00;99.90;;;;;;5036180;28;20033;-78
2023/10/26 12:15:07;;;;;;;31.48;19.08;;;12.00;99.90;;;;;;5036319;28;20071;-78
2023/10/26 12:17:32;;;;;;;35.22;20.50;;;12.00;99.90;;;;;;5036053;28;20127;-77
2023/10/26 12:19:58;;;;;;;33.47;19.17;;;12.10;99.90;;;;;;5053679;28;20120;-78
2023/10/26 12:22:25;;;;;;;34.50;19.65;;;12.10;99.90;;;;;;5056014;28;20059;-78
2023/10/26 12:24:51;;;;;;;30.65;19.65;;;12.10;99.90;;;;;;5035934;28;20056;-78
2023/10/26 12:27:16;;;;;;;34.45;20.63;;;12.00;99.90;;;;;;5035701;28;20408;-78
2023/10/26 12:29:46;;;;;;;29.60;19.48;;;12.00;99.90;;;;;;5052398;28;20048;-78
2023/10/26 12:32:13;;;;;;;33.78;19.23;;;12.10;99.90;;;;;;5035822;28;20037;-79
2023/10/26 12:34:39;;;;;;;35.55;19.98;;;12.10;99.90;;;;;;5035855;28;20063;-77